Moore, South Carolina
Current Conditions -  °F | °C
As of 11:35 PM on Thursday 20 Nov 2014 (Local Time) from KSPA Reporting Station
Clear Clear  
Wind Chill: 43°   Ceiling: Unl
Heat Index: 46°   Visibility: 10mi
Dew Point: 28°   Wind: 7mph
Humidity: 50%   Direction: 250°WSW
Pressure: 30.19"   Gusts: NA
Location:  34.83°N, 81.99°W
Report Text: KSPA 210435Z AUTO 25006KT 10SM CLR 08/M02 A3019 RMK AO2
Loading
Personal Weather Stations






























Interactive Weather Map New forecast layout! Learn more

10-Day Weather Forecast

Advertisements
Track Severe Weather on mobile